sensor_id;sensor_type;location;lat;lon;timestamp;temperature;humidity
22908;DHT22;11620;50.050;8.690;2023-04-15T00:02:40;6.50;99.90
22908;DHT22;11620;50.050;8.690;2023-04-15T00:05:29;6.50;99.90
22908;DHT22;11620;50.050;8.690;2023-04-15T00:08:16;6.50;99.90
22908;DHT22;11620;50.050;8.690;2023-04-15T00:11:02;6.50;99.90
22908;DHT22;11620;50.050;8.690;2023-04-15T00:13:50;6.40;99.90
22908;DHT22;11620;50.050;8.690;2023-04-15T00:16:37;6.40;99.90
22908;DHT22;11620;50.050;8.690;2023-04-15T00:19:23;6.40;99.90
22908;DHT22;11620;50.050;8.690;2023-04-15T00:22:11;6.30;99.90
22908;DHT22;11620;50.050;8.690;2023-04-15T00:24:57;6.30;99.90
22908;DHT22;11620;50.050;8.690;2023-04-15T00:27:43;6.30;99.90
22908;DHT22;11620;50.050;8.690;2023-04-15T00:30:30;6.30;99.90
22908;DHT22;11620;50.050;8.690;2023-04-15T00:33:16;6.30;99.90
22908;DHT22;11620;50.050;8.690;2023-04-15T00:36:03;6.30;99.90
22908;DHT22;11620;50.050;8.690;2023-04-15T00:38:50;6.30;99.90
22908;DHT22;11620;50.050;8.690;2023-04-15T00:41:37;6.20;99.90
22908;DHT22;11620;50.050;8.690;2023-04-15T00:44:26;6.20;99.90
22908;DHT22;11620;50.050;8.690;2023-04-15T00:47:13;6.20;99.90
22908;DHT22;11620;50.050;8.690;2023-04-15T00:50:00;6.20;99.90
22908;DHT22;11620;50.050;8.690;2023-04-15T00:52:46;6.20;99.90
22908;DHT22;11620;50.050;8.690;2023-04-15T00:55:32;6.10;99.90
22908;DHT22;11620;50.050;8.690;2023-04-15T00:58:19;6.10;99.90
22908;DHT22;11620;50.050;8.690;2023-04-15T01:01:05;6.10;99.90
22908;DHT22;11620;50.050;8.690;2023-04-15T01:03:51;6.10;99.90
22908;DHT22;11620;50.050;8.690;2023-04-15T01:06:38;6.10;99.90
22908;DHT22;11620;50.050;8.690;2023-04-15T01:09:25;6.10;99.90
22908;DHT22;11620;50.050;8.690;2023-04-15T01:12:13;6.00;99.90
22908;DHT22;11620;50.050;8.690;2023-04-15T01:15:00;6.00;99.90
22908;DHT22;11620;50.050;8.690;2023-04-15T01:17:47;6.00;99.90
22908;DHT22;11620;50.050;8.690;2023-04-15T01:20:34;6.00;99.90
22908;DHT22;11620;50.050;8.690;2023-04-15T01:23:20;5.90;99.90
22908;DHT22;11620;50.050;8.690;2023-04-15T01:26:09;5.90;99.90
22908;DHT22;11620;50.050;8.690;2023-04-15T01:28:56;5.90;99.90
22908;DHT22;11620;50.050;8.690;2023-04-15T01:31:52;5.90;99.90
22908;DHT22;11620;50.050;8.690;2023-04-15T01:34:38;5.90;99.90
22908;DHT22;11620;50.050;8.690;2023-04-15T01:37:24;5.80;99.90
22908;DHT22;11620;50.050;8.690;2023-04-15T01:40:11;5.80;99.90
22908;DHT22;11620;50.050;8.690;2023-04-15T01:42:59;5.80;99.90
22908;DHT22;11620;50.050;8.690;2023-04-15T01:45:46;5.80;99.90
22908;DHT22;11620;50.050;8.690;2023-04-15T01:48:32;5.80;99.90
22908;DHT22;11620;50.050;8.690;2023-04-15T01:51:19;5.80;99.90
22908;DHT22;11620;50.050;8.690;2023-04-15T01:54:05;5.80;99.90
22908;DHT22;11620;50.050;8.690;2023-04-15T01:56:52;5.70;99.90
22908;DHT22;11620;50.050;8.690;2023-04-15T01:59:38;5.70;99.90
22908;DHT22;11620;50.050;8.690;2023-04-15T02:02:25;5.70;99.90
22908;DHT22;11620;50.050;8.690;2023-04-15T02:05:11;5.70;99.90
22908;DHT22;11620;50.050;8.690;2023-04-15T02:07:57;5.70;99.90
22908;DHT22;11620;50.050;8.690;2023-04-15T02:10:44;5.70;99.90
22908;DHT22;11620;50.050;8.690;2023-04-15T02:13:30;5.70;99.90
22908;DHT22;11620;50.050;8.690;2023-04-15T02:16:17;5.70;99.90
22908;DHT22;11620;50.050;8.690;2023-04-15T02:19:04;5.60;99.90
22908;DHT22;11620;50.050;8.690;2023-04-15T02:21:50;5.60;99.90
22908;DHT22;11620;50.050;8.690;2023-04-15T02:24:36;5.60;99.90
22908;DHT22;11620;50.050;8.690;2023-04-15T02:27:23;5.60;99.90
22908;DHT22;11620;50.050;8.690;2023-04-15T02:30:09;5.60;99.90
22908;DHT22;11620;50.050;8.690;2023-04-15T02:32:58;5.50;99.90
22908;DHT22;11620;50.050;8.690;2023-04-15T02:35:45;5.50;99.90
22908;DHT22;11620;50.050;8.690;2023-04-15T02:38:31;5.50;99.90
22908;DHT22;11620;50.050;8.690;2023-04-15T02:41:17;5.50;99.90
22908;DHT22;11620;50.050;8.690;2023-04-15T02:44:05;5.50;99.90
22908;DHT22;11620;50.050;8.690;2023-04-15T02:46:52;5.50;99.90
22908;DHT22;11620;50.050;8.690;2023-04-15T02:49:39;5.40;99.90
22908;DHT22;11620;50.050;8.690;2023-04-15T02:52:26;5.40;99.90
22908;DHT22;11620;50.050;8.690;2023-04-15T02:55:13;5.40;99.90
22908;DHT22;11620;50.050;8.690;2023-04-15T02:57:59;5.40;99.90
22908;DHT22;11620;50.050;8.690;2023-04-15T03:00:46;5.40;99.90
22908;DHT22;11620;50.050;8.690;2023-04-15T03:03:32;5.30;99.90
22908;DHT22;11620;50.050;8.690;2023-04-15T03:06:18;5.30;99.90
22908;DHT22;11620;50.050;8.690;2023-04-15T03:09:05;5.30;99.90
22908;DHT22;11620;50.050;8.690;2023-04-15T03:11:51;5.30;99.90
22908;DHT22;11620;50.050;8.690;2023-04-15T03:14:39;5.30;99.90
22908;DHT22;11620;50.050;8.690;2023-04-15T03:17:26;5.30;99.90
22908;DHT22;11620;50.050;8.690;2023-04-15T03:20:12;5.20;99.90
22908;DHT22;11620;50.050;8.690;2023-04-15T03:22:59;5.20;99.90
22908;DHT22;11620;50.050;8.690;2023-04-15T03:25:45;5.20;99.90
22908;DHT22;11620;50.050;8.690;2023-04-15T03:28:32;5.20;99.90
22908;DHT22;11620;50.050;8.690;2023-04-15T03:31:18;5.20;99.90
22908;DHT22;11620;50.050;8.690;2023-04-15T03:34:04;5.20;99.90
22908;DHT22;11620;50.050;8.690;2023-04-15T03:36:51;5.10;99.90
22908;DHT22;11620;50.050;8.690;2023-04-15T03:39:38;5.10;99.90
22908;DHT22;11620;50.050;8.690;2023-04-15T03:42:24;5.10;99.90
22908;DHT22;11620;50.050;8.690;2023-04-15T03:45:10;5.10;99.90
22908;DHT22;11620;50.050;8.690;2023-04-15T03:47:57;5.10;99.90
22908;DHT22;11620;50.050;8.690;2023-04-15T03:50:43;5.10;99.90
22908;DHT22;11620;50.050;8.690;2023-04-15T03:53:29;5.00;99.90
22908;DHT22;11620;50.050;8.690;2023-04-15T03:56:16;5.00;99.90
22908;DHT22;11620;50.050;8.690;2023-04-15T03:59:02;5.00;99.90
22908;DHT22;11620;50.050;8.690;2023-04-15T04:01:48;5.00;99.90
22908;DHT22;11620;50.050;8.690;2023-04-15T04:04:35;5.00;99.90
22908;DHT22;11620;50.050;8.690;2023-04-15T04:07:22;4.90;99.90
22908;DHT22;11620;50.050;8.690;2023-04-15T04:10:09;4.90;99.90
22908;DHT22;11620;50.050;8.690;2023-04-15T04:12:55;4.90;99.90
22908;DHT22;11620;50.050;8.690;2023-04-15T04:15:42;4.80;99.90
22908;DHT22;11620;50.050;8.690;2023-04-15T04:18:28;4.80;99.90
22908;DHT22;11620;50.050;8.690;2023-04-15T04:21:15;4.80;99.90
22908;DHT22;11620;50.050;8.690;2023-04-15T04:24:01;4.80;99.90
22908;DHT22;11620;50.050;8.690;2023-04-15T04:26:48;4.80;99.90
22908;DHT22;11620;50.050;8.690;2023-04-15T04:29:34;4.70;99.90
22908;DHT22;11620;50.050;8.690;2023-04-15T04:32:21;4.80;99.90
22908;DHT22;11620;50.050;8.690;2023-04-15T04:35:07;4.80;99.90
22908;DHT22;11620;50.050;8.690;2023-04-15T04:37:54;4.70;99.90
22908;DHT22;11620;50.050;8.690;2023-04-15T04:40:40;4.70;99.90
22908;DHT22;11620;50.050;8.690;2023-04-15T04:43:26;4.70;99.90
22908;DHT22;11620;50.050;8.690;2023-04-15T04:46:13;4.70;99.90
22908;DHT22;11620;50.050;8.690;2023-04-15T04:48:59;4.60;99.90
22908;DHT22;11620;50.050;8.690;2023-04-15T04:51:45;4.60;99.90
22908;DHT22;11620;50.050;8.690;2023-04-15T04:54:33;4.60;99.90
22908;DHT22;11620;50.050;8.690;2023-04-15T04:57:19;4.60;99.90
22908;DHT22;11620;50.050;8.690;2023-04-15T05:00:06;4.60;99.90
22908;DHT22;11620;50.050;8.690;2023-04-15T05:02:54;4.50;99.90
22908;DHT22;11620;50.050;8.690;2023-04-15T05:05:40;4.60;99.90
22908;DHT22;11620;50.050;8.690;2023-04-15T05:08:27;4.60;99.90
22908;DHT22;11620;50.050;8.690;2023-04-15T05:11:13;4.60;99.90
22908;DHT22;11620;50.050;8.690;2023-04-15T05:13:59;4.60;99.90
22908;DHT22;11620;50.050;8.690;2023-04-15T05:16:47;4.60;99.90
22908;DHT22;11620;50.050;8.690;2023-04-15T05:19:33;4.60;99.90
22908;DHT22;11620;50.050;8.690;2023-04-15T05:22:19;4.60;99.90
22908;DHT22;11620;50.050;8.690;2023-04-15T05:25:06;4.60;99.90
22908;DHT22;11620;50.050;8.690;2023-04-15T05:27:53;4.60;99.90
22908;DHT22;11620;50.050;8.690;2023-04-15T05:30:40;4.70;99.90
22908;DHT22;11620;50.050;8.690;2023-04-15T05:33:26;4.70;99.90
22908;DHT22;11620;50.050;8.690;2023-04-15T05:36:12;4.70;99.90
22908;DHT22;11620;50.050;8.690;2023-04-15T05:38:59;4.70;99.90
22908;DHT22;11620;50.050;8.690;2023-04-15T05:41:45;4.70;99.90
22908;DHT22;11620;50.050;8.690;2023-04-15T05:44:32;4.80;99.90
22908;DHT22;11620;50.050;8.690;2023-04-15T05:47:18;4.80;99.90
22908;DHT22;11620;50.050;8.690;2023-04-15T05:50:05;4.80;99.90
22908;DHT22;11620;50.050;8.690;2023-04-15T05:52:51;4.90;99.90
22908;DHT22;11620;50.050;8.690;2023-04-15T05:55:38;4.90;99.90
22908;DHT22;11620;50.050;8.690;2023-04-15T05:58:24;5.00;99.90
22908;DHT22;11620;50.050;8.690;2023-04-15T06:01:10;5.00;99.90
22908;DHT22;11620;50.050;8.690;2023-04-15T06:03:57;5.00;99.90
22908;DHT22;11620;50.050;8.690;2023-04-15T06:06:43;5.10;99.90
22908;DHT22;11620;50.050;8.690;2023-04-15T06:09:30;5.10;99.90
22908;DHT22;11620;50.050;8.690;2023-04-15T06:12:16;5.10;99.90
22908;DHT22;11620;50.050;8.690;2023-04-15T06:15:03;5.20;99.90
22908;DHT22;11620;50.050;8.690;2023-04-15T06:17:49;5.20;99.90
22908;DHT22;11620;50.050;8.690;2023-04-15T06:20:36;5.30;99.90
22908;DHT22;11620;50.050;8.690;2023-04-15T06:23:22;5.40;99.90
22908;DHT22;11620;50.050;8.690;2023-04-15T06:26:09;5.40;99.90
22908;DHT22;11620;50.050;8.690;2023-04-15T06:28:55;5.50;99.90
22908;DHT22;11620;50.050;8.690;2023-04-15T06:31:42;5.50;99.90
22908;DHT22;11620;50.050;8.690;2023-04-15T06:34:28;5.60;99.90
22908;DHT22;11620;50.050;8.690;2023-04-15T06:37:14;5.70;99.90
22908;DHT22;11620;50.050;8.690;2023-04-15T06:40:01;5.70;99.90
22908;DHT22;11620;50.050;8.690;2023-04-15T06:42:50;5.80;99.90
22908;DHT22;11620;50.050;8.690;2023-04-15T06:45:36;5.90;99.90
22908;DHT22;11620;50.050;8.690;2023-04-15T06:48:23;6.00;99.90
22908;DHT22;11620;50.050;8.690;2023-04-15T06:51:09;6.20;99.90
22908;DHT22;11620;50.050;8.690;2023-04-15T06:53:56;6.30;99.90
22908;DHT22;11620;50.050;8.690;2023-04-15T06:56:42;6.30;99.90
22908;DHT22;11620;50.050;8.690;2023-04-15T06:59:29;6.40;99.90
22908;DHT22;11620;50.050;8.690;2023-04-15T07:02:15;6.50;99.90
22908;DHT22;11620;50.050;8.690;2023-04-15T07:05:01;6.60;99.90
22908;DHT22;11620;50.050;8.690;2023-04-15T07:07:48;6.70;99.90
22908;DHT22;11620;50.050;8.690;2023-04-15T07:10:34;6.80;99.90
22908;DHT22;11620;50.050;8.690;2023-04-15T07:13:20;7.00;99.90
22908;DHT22;11620;50.050;8.690;2023-04-15T07:16:06;7.10;99.90
22908;DHT22;11620;50.050;8.690;2023-04-15T07:18:53;7.20;99.90
22908;DHT22;11620;50.050;8.690;2023-04-15T07:21:40;7.30;99.90
22908;DHT22;11620;50.050;8.690;2023-04-15T07:24:27;7.50;99.90
22908;DHT22;11620;50.050;8.690;2023-04-15T07:27:13;7.70;99.90
22908;DHT22;11620;50.050;8.690;2023-04-15T07:30:00;7.80;99.90
22908;DHT22;11620;50.050;8.690;2023-04-15T07:32:47;7.90;99.90
22908;DHT22;11620;50.050;8.690;2023-04-15T07:35:33;7.90;99.90
22908;DHT22;11620;50.050;8.690;2023-04-15T07:38:19;7.90;99.90
22908;DHT22;11620;50.050;8.690;2023-04-15T07:41:06;8.00;99.90
22908;DHT22;11620;50.050;8.690;2023-04-15T07:43:52;8.10;99.90
22908;DHT22;11620;50.050;8.690;2023-04-15T07:46:39;8.10;99.90
22908;DHT22;11620;50.050;8.690;2023-04-15T07:49:25;8.20;99.90
22908;DHT22;11620;50.050;8.690;2023-04-15T07:52:11;8.30;99.90
22908;DHT22;11620;50.050;8.690;2023-04-15T07:54:58;8.30;99.90
22908;DHT22;11620;50.050;8.690;2023-04-15T07:57:44;8.30;99.90
22908;DHT22;11620;50.050;8.690;2023-04-15T08:00:32;8.40;99.90
22908;DHT22;11620;50.050;8.690;2023-04-15T08:03:18;8.50;99.90
22908;DHT22;11620;50.050;8.690;2023-04-15T08:06:07;8.50;99.90
22908;DHT22;11620;50.050;8.690;2023-04-15T08:08:53;8.60;99.90
22908;DHT22;11620;50.050;8.690;2023-04-15T08:11:40;8.70;99.90
22908;DHT22;11620;50.050;8.690;2023-04-15T08:14:27;8.70;99.90
22908;DHT22;11620;50.050;8.690;2023-04-15T08:17:13;8.70;99.90
22908;DHT22;11620;50.050;8.690;2023-04-15T08:20:00;8.70;99.90
22908;DHT22;11620;50.050;8.690;2023-04-15T08:22:46;8.80;99.90
22908;DHT22;11620;50.050;8.690;2023-04-15T08:25:36;8.90;99.90
22908;DHT22;11620;50.050;8.690;2023-04-15T08:28:23;8.90;99.90
22908;DHT22;11620;50.050;8.690;2023-04-15T08:31:09;8.90;99.90
22908;DHT22;11620;50.050;8.690;2023-04-15T08:33:56;9.00;99.90
22908;DHT22;11620;50.050;8.690;2023-04-15T08:36:42;9.00;99.90
22908;DHT22;11620;50.050;8.690;2023-04-15T08:39:29;9.20;99.90
22908;DHT22;11620;50.050;8.690;2023-04-15T08:42:16;9.30;99.90
22908;DHT22;11620;50.050;8.690;2023-04-15T08:45:04;9.50;99.90
22908;DHT22;11620;50.050;8.690;2023-04-15T08:47:54;9.70;99.90
22908;DHT22;11620;50.050;8.690;2023-04-15T08:50:42;9.80;99.90
22908;DHT22;11620;50.050;8.690;2023-04-15T08:53:28;9.90;99.90
22908;DHT22;11620;50.050;8.690;2023-04-15T08:56:15;10.00;99.90
22908;DHT22;11620;50.050;8.690;2023-04-15T08:59:02;10.20;99.90
22908;DHT22;11620;50.050;8.690;2023-04-15T09:01:49;10.30;99.90
22908;DHT22;11620;50.050;8.690;2023-04-15T09:04:36;10.30;99.90
22908;DHT22;11620;50.050;8.690;2023-04-15T09:07:23;10.30;99.90
22908;DHT22;11620;50.050;8.690;2023-04-15T09:10:09;10.40;99.90
22908;DHT22;11620;50.050;8.690;2023-04-15T09:12:56;10.30;99.90
22908;DHT22;11620;50.050;8.690;2023-04-15T09:15:43;10.30;99.90
22908;DHT22;11620;50.050;8.690;2023-04-15T09:18:30;10.40;99.90
22908;DHT22;11620;50.050;8.690;2023-04-15T09:21:17;10.40;99.90
22908;DHT22;11620;50.050;8.690;2023-04-15T09:24:04;10.40;99.90
22908;DHT22;11620;50.050;8.690;2023-04-15T09:26:54;10.40;99.90
22908;DHT22;11620;50.050;8.690;2023-04-15T09:29:43;10.40;99.90
22908;DHT22;11620;50.050;8.690;2023-04-15T09:32:29;10.50;99.90
22908;DHT22;11620;50.050;8.690;2023-04-15T09:35:16;10.50;99.90
22908;DHT22;11620;50.050;8.690;2023-04-15T09:38:03;10.50;99.90
22908;DHT22;11620;50.050;8.690;2023-04-15T09:40:49;10.50;99.90
22908;DHT22;11620;50.050;8.690;2023-04-15T09:43:37;10.50;99.90
22908;DHT22;11620;50.050;8.690;2023-04-15T09:46:44;10.50;99.90
22908;DHT22;11620;50.050;8.690;2023-04-15T09:49:30;10.40;99.90
22908;DHT22;11620;50.050;8.690;2023-04-15T09:52:16;10.30;99.90
22908;DHT22;11620;50.050;8.690;2023-04-15T09:55:03;10.30;99.90
22908;DHT22;11620;50.050;8.690;2023-04-15T09:57:51;10.30;99.90
22908;DHT22;11620;50.050;8.690;2023-04-15T10:00:37;10.40;99.90
22908;DHT22;11620;50.050;8.690;2023-04-15T10:03:31;10.40;99.90
22908;DHT22;11620;50.050;8.690;2023-04-15T10:06:19;10.50;99.90
22908;DHT22;11620;50.050;8.690;2023-04-15T10:09:06;10.50;99.90
22908;DHT22;11620;50.050;8.690;2023-04-15T10:11:52;10.50;99.90
22908;DHT22;11620;50.050;8.690;2023-04-15T10:14:39;10.60;99.90
22908;DHT22;11620;50.050;8.690;2023-04-15T10:17:29;10.70;99.90
22908;DHT22;11620;50.050;8.690;2023-04-15T10:20:18;10.70;99.90
22908;DHT22;11620;50.050;8.690;2023-04-15T10:23:06;10.80;99.90
22908;DHT22;11620;50.050;8.690;2023-04-15T10:25:53;10.80;99.90
22908;DHT22;11620;50.050;8.690;2023-04-15T10:28:40;10.70;99.90
22908;DHT22;11620;50.050;8.690;2023-04-15T10:31:27;10.70;99.90
22908;DHT22;11620;50.050;8.690;2023-04-15T10:34:14;10.60;99.90
22908;DHT22;11620;50.050;8.690;2023-04-15T10:37:02;10.60;99.90
22908;DHT22;11620;50.050;8.690;2023-04-15T10:39:49;10.50;99.90
22908;DHT22;11620;50.050;8.690;2023-04-15T10:42:35;10.60;99.90
22908;DHT22;11620;50.050;8.690;2023-04-15T10:45:25;10.80;99.90
22908;DHT22;11620;50.050;8.690;2023-04-15T10:48:15;11.00;99.90
22908;DHT22;11620;50.050;8.690;2023-04-15T10:51:01;11.10;99.90
22908;DHT22;11620;50.050;8.690;2023-04-15T10:53:50;11.20;99.90
22908;DHT22;11620;50.050;8.690;2023-04-15T10:56:36;11.30;99.90
22908;DHT22;11620;50.050;8.690;2023-04-15T10:59:22;11.30;99.90
22908;DHT22;11620;50.050;8.690;2023-04-15T11:02:12;11.30;99.90
22908;DHT22;11620;50.050;8.690;2023-04-15T11:04:59;11.20;99.90
22908;DHT22;11620;50.050;8.690;2023-04-15T11:07:52;11.20;99.90
22908;DHT22;11620;50.050;8.690;2023-04-15T11:13:25;11.30;99.90
22908;DHT22;11620;50.050;8.690;2023-04-15T11:16:13;11.30;99.90
22908;DHT22;11620;50.050;8.690;2023-04-15T11:18:59;11.40;99.90
22908;DHT22;11620;50.050;8.690;2023-04-15T11:21:46;11.40;99.90
22908;DHT22;11620;50.050;8.690;2023-04-15T11:24:33;11.50;99.90
22908;DHT22;11620;50.050;8.690;2023-04-15T11:27:20;11.60;99.90
22908;DHT22;11620;50.050;8.690;2023-04-15T11:30:20;12.00;99.90
22908;DHT22;11620;50.050;8.690;2023-04-15T11:33:09;12.20;99.90
22908;DHT22;11620;50.050;8.690;2023-04-15T11:35:58;12.20;99.90
22908;DHT22;11620;50.050;8.690;2023-04-15T11:38:46;12.20;99.90
22908;DHT22;11620;50.050;8.690;2023-04-15T11:41:32;12.10;99.90
22908;DHT22;11620;50.050;8.690;2023-04-15T11:44:20;12.00;99.90
22908;DHT22;11620;50.050;8.690;2023-04-15T11:47:23;11.80;99.90
22908;DHT22;11620;50.050;8.690;2023-04-15T11:50:22;11.60;99.90
22908;DHT22;11620;50.050;8.690;2023-04-15T11:53:09;11.40;99.90
22908;DHT22;11620;50.050;8.690;2023-04-15T11:55:55;11.20;99.90
22908;DHT22;11620;50.050;8.690;2023-04-15T11:58:42;11.20;99.90
22908;DHT22;11620;50.050;8.690;2023-04-15T12:01:34;11.10;99.90
22908;DHT22;11620;50.050;8.690;2023-04-15T12:04:24;11.10;99.90
22908;DHT22;11620;50.050;8.690;2023-04-15T12:07:11;11.00;99.90
22908;DHT22;11620;50.050;8.690;2023-04-15T12:09:57;10.90;99.90
22908;DHT22;11620;50.050;8.690;2023-04-15T12:12:48;10.90;99.90
22908;DHT22;11620;50.050;8.690;2023-04-15T12:15:37;11.00;99.90
22908;DHT22;11620;50.050;8.690;2023-04-15T12:18:24;11.00;99.90
22908;DHT22;11620;50.050;8.690;2023-04-15T12:21:10;11.00;99.90
22908;DHT22;11620;50.050;8.690;2023-04-15T12:24:00;10.90;99.90
22908;DHT22;11620;50.050;8.690;2023-04-15T12:26:49;10.90;99.90
22908;DHT22;11620;50.050;8.690;2023-04-15T12:29:37;10.90;99.90
22908;DHT22;11620;50.050;8.690;2023-04-15T12:32:24;10.80;99.90
22908;DHT22;11620;50.050;8.690;2023-04-15T12:35:10;10.80;99.90
22908;DHT22;11620;50.050;8.690;2023-04-15T12:37:56;10.90;99.90
22908;DHT22;11620;50.050;8.690;2023-04-15T12:40:45;10.80;99.90
22908;DHT22;11620;50.050;8.690;2023-04-15T12:43:32;10.80;99.90
22908;DHT22;11620;50.050;8.690;2023-04-15T12:46:18;10.70;99.90
22908;DHT22;11620;50.050;8.690;2023-04-15T12:49:05;10.50;99.90
22908;DHT22;11620;50.050;8.690;2023-04-15T12:51:54;10.50;99.90
22908;DHT22;11620;50.050;8.690;2023-04-15T12:54:40;10.50;99.90
22908;DHT22;11620;50.050;8.690;2023-04-15T12:57:26;10.50;99.90
22908;DHT22;11620;50.050;8.690;2023-04-15T13:00:13;10.50;99.90
22908;DHT22;11620;50.050;8.690;2023-04-15T13:03:00;10.50;99.90
22908;DHT22;11620;50.050;8.690;2023-04-15T13:05:46;10.30;99.90
22908;DHT22;11620;50.050;8.690;2023-04-15T13:08:32;10.00;99.90
22908;DHT22;11620;50.050;8.690;2023-04-15T13:11:18;9.90;99.90
22908;DHT22;11620;50.050;8.690;2023-04-15T13:14:07;9.90;99.90
22908;DHT22;11620;50.050;8.690;2023-04-15T13:16:53;10.00;99.90
22908;DHT22;11620;50.050;8.690;2023-04-15T13:19:40;9.90;99.90
22908;DHT22;11620;50.050;8.690;2023-04-15T13:22:26;9.90;99.90
22908;DHT22;11620;50.050;8.690;2023-04-15T13:25:13;9.70;99.90
22908;DHT22;11620;50.050;8.690;2023-04-15T13:27:59;9.40;99.90
22908;DHT22;11620;50.050;8.690;2023-04-15T13:30:46;9.40;99.90
22908;DHT22;11620;50.050;8.690;2023-04-15T13:33:33;9.50;99.90
22908;DHT22;11620;50.050;8.690;2023-04-15T13:36:20;9.50;99.90
22908;DHT22;11620;50.050;8.690;2023-04-15T13:39:06;9.50;99.90
22908;DHT22;11620;50.050;8.690;2023-04-15T13:41:52;9.50;99.90
22908;DHT22;11620;50.050;8.690;2023-04-15T13:44:39;9.60;99.90
22908;DHT22;11620;50.050;8.690;2023-04-15T13:47:25;9.60;99.90
22908;DHT22;11620;50.050;8.690;2023-04-15T13:50:12;9.60;99.90
22908;DHT22;11620;50.050;8.690;2023-04-15T13:52:58;9.50;99.90
22908;DHT22;11620;50.050;8.690;2023-04-15T13:55:44;9.50;99.90
22908;DHT22;11620;50.050;8.690;2023-04-15T13:58:31;9.50;99.90
22908;DHT22;11620;50.050;8.690;2023-04-15T14:01:17;9.60;99.90
22908;DHT22;11620;50.050;8.690;2023-04-15T14:04:04;9.60;99.90
22908;DHT22;11620;50.050;8.690;2023-04-15T14:06:50;9.70;99.90
22908;DHT22;11620;50.050;8.690;2023-04-15T14:09:36;9.70;99.90
22908;DHT22;11620;50.050;8.690;2023-04-15T14:12:23;9.70;99.90
22908;DHT22;11620;50.050;8.690;2023-04-15T14:15:09;9.60;99.90
22908;DHT22;11620;50.050;8.690;2023-04-15T14:17:56;9.70;99.90
22908;DHT22;11620;50.050;8.690;2023-04-15T14:20:42;9.70;99.90
22908;DHT22;11620;50.050;8.690;2023-04-15T14:23:08;9.80;99.90
22908;DHT22;11620;50.050;8.690;2023-04-15T14:25:53;9.80;99.90
22908;DHT22;11620;50.050;8.690;2023-04-15T14:28:39;9.70;99.90
22908;DHT22;11620;50.050;8.690;2023-04-15T14:31:26;9.70;99.90
22908;DHT22;11620;50.050;8.690;2023-04-15T14:34:12;9.70;99.90
22908;DHT22;11620;50.050;8.690;2023-04-15T14:36:58;9.70;99.90
22908;DHT22;11620;50.050;8.690;2023-04-15T14:39:45;9.70;99.90
22908;DHT22;11620;50.050;8.690;2023-04-15T14:42:31;9.70;99.90
22908;DHT22;11620;50.050;8.690;2023-04-15T14:45:17;9.60;99.90
22908;DHT22;11620;50.050;8.690;2023-04-15T14:48:04;9.50;99.90
22908;DHT22;11620;50.050;8.690;2023-04-15T14:50:51;9.60;99.90
22908;DHT22;11620;50.050;8.690;2023-04-15T14:53:38;9.40;99.90
22908;DHT22;11620;50.050;8.690;2023-04-15T14:56:25;9.40;99.90
22908;DHT22;11620;50.050;8.690;2023-04-15T14:59:11;9.30;99.90
22908;DHT22;11620;50.050;8.690;2023-04-15T15:01:57;9.20;99.90
22908;DHT22;11620;50.050;8.690;2023-04-15T15:04:44;9.10;99.90
22908;DHT22;11620;50.050;8.690;2023-04-15T15:07:30;9.10;99.90
22908;DHT22;11620;50.050;8.690;2023-04-15T15:10:16;9.10;99.90
22908;DHT22;11620;50.050;8.690;2023-04-15T15:13:03;9.20;99.90
22908;DHT22;11620;50.050;8.690;2023-04-15T15:15:50;9.20;99.90
22908;DHT22;11620;50.050;8.690;2023-04-15T15:18:36;9.20;99.90
22908;DHT22;11620;50.050;8.690;2023-04-15T15:21:23;9.20;99.90
22908;DHT22;11620;50.050;8.690;2023-04-15T15:24:09;9.20;99.90
22908;DHT22;11620;50.050;8.690;2023-04-15T15:26:55;9.20;99.90
22908;DHT22;11620;50.050;8.690;2023-04-15T15:29:42;9.20;99.90
22908;DHT22;11620;50.050;8.690;2023-04-15T15:32:28;9.10;99.90
22908;DHT22;11620;50.050;8.690;2023-04-15T15:35:14;9.10;99.90
22908;DHT22;11620;50.050;8.690;2023-04-15T15:38:01;9.00;99.90
22908;DHT22;11620;50.050;8.690;2023-04-15T15:40:47;9.00;99.90
22908;DHT22;11620;50.050;8.690;2023-04-15T15:43:34;9.10;99.90
22908;DHT22;11620;50.050;8.690;2023-04-15T15:46:20;9.10;99.90
22908;DHT22;11620;50.050;8.690;2023-04-15T15:49:10;9.20;99.90
22908;DHT22;11620;50.050;8.690;2023-04-15T15:51:56;9.20;99.90
22908;DHT22;11620;50.050;8.690;2023-04-15T15:54:42;9.20;99.90
22908;DHT22;11620;50.050;8.690;2023-04-15T15:57:29;9.20;99.90
22908;DHT22;11620;50.050;8.690;2023-04-15T16:00:15;9.20;99.90
22908;DHT22;11620;50.050;8.690;2023-04-15T16:03:02;9.10;99.90
22908;DHT22;11620;50.050;8.690;2023-04-15T16:05:49;9.20;99.90
22908;DHT22;11620;50.050;8.690;2023-04-15T16:08:35;9.20;99.90
22908;DHT22;11620;50.050;8.690;2023-04-15T16:11:22;9.20;99.90
22908;DHT22;11620;50.050;8.690;2023-04-15T16:14:08;9.20;99.90
22908;DHT22;11620;50.050;8.690;2023-04-15T16:16:55;9.10;99.90
22908;DHT22;11620;50.050;8.690;2023-04-15T16:19:41;9.00;99.90
22908;DHT22;11620;50.050;8.690;2023-04-15T16:22:28;9.10;99.90
22908;DHT22;11620;50.050;8.690;2023-04-15T16:25:14;9.10;99.90
22908;DHT22;11620;50.050;8.690;2023-04-15T16:28:00;9.10;99.90
22908;DHT22;11620;50.050;8.690;2023-04-15T16:30:47;9.00;99.90
22908;DHT22;11620;50.050;8.690;2023-04-15T16:33:33;9.00;99.90
22908;DHT22;11620;50.050;8.690;2023-04-15T16:36:20;8.90;99.90
22908;DHT22;11620;50.050;8.690;2023-04-15T16:39:06;8.90;99.90
22908;DHT22;11620;50.050;8.690;2023-04-15T16:41:52;8.90;99.90
22908;DHT22;11620;50.050;8.690;2023-04-15T16:44:39;8.90;99.90
22908;DHT22;11620;50.050;8.690;2023-04-15T16:47:25;8.90;99.90
22908;DHT22;11620;50.050;8.690;2023-04-15T16:50:11;8.90;99.90
22908;DHT22;11620;50.050;8.690;2023-04-15T16:52:58;8.90;99.90
22908;DHT22;11620;50.050;8.690;2023-04-15T16:55:44;8.90;99.90
22908;DHT22;11620;50.050;8.690;2023-04-15T16:58:30;9.00;99.90
22908;DHT22;11620;50.050;8.690;2023-04-15T17:01:16;8.90;99.90
22908;DHT22;11620;50.050;8.690;2023-04-15T17:04:03;9.00;99.90
22908;DHT22;11620;50.050;8.690;2023-04-15T17:06:50;9.00;99.90
22908;DHT22;11620;50.050;8.690;2023-04-15T17:09:40;9.00;99.90
22908;DHT22;11620;50.050;8.690;2023-04-15T17:12:26;9.00;99.90
22908;DHT22;11620;50.050;8.690;2023-04-15T17:15:12;9.00;99.90
22908;DHT22;11620;50.050;8.690;2023-04-15T17:17:59;8.90;99.90
22908;DHT22;11620;50.050;8.690;2023-04-15T17:20:45;8.80;99.90
22908;DHT22;11620;50.050;8.690;2023-04-15T17:23:31;8.80;99.90
22908;DHT22;11620;50.050;8.690;2023-04-15T17:26:18;8.80;99.90
22908;DHT22;11620;50.050;8.690;2023-04-15T17:29:04;8.80;99.90
22908;DHT22;11620;50.050;8.690;2023-04-15T17:31:51;8.70;99.90
22908;DHT22;11620;50.050;8.690;2023-04-15T17:34:37;8.70;99.90
22908;DHT22;11620;50.050;8.690;2023-04-15T17:37:23;8.70;99.90
22908;DHT22;11620;50.050;8.690;2023-04-15T17:40:10;8.70;99.90
22908;DHT22;11620;50.050;8.690;2023-04-15T17:42:57;8.70;99.90
22908;DHT22;11620;50.050;8.690;2023-04-15T17:45:43;8.70;99.90
22908;DHT22;11620;50.050;8.690;2023-04-15T17:48:32;8.60;99.90
22908;DHT22;11620;50.050;8.690;2023-04-15T17:51:19;8.60;99.90